createdAt,value
2023-03-03T00:01:11.606Z,74.10
2023-03-03T00:03:39.410Z,75.17
2023-03-03T00:06:11.227Z,75.27
2023-03-03T00:08:39.600Z,74.64
2023-03-03T00:11:08.694Z,74.61
2023-03-03T00:13:45.804Z,74.94
2023-03-03T00:16:23.162Z,75.05
2023-03-03T00:18:51.559Z,74.82
2023-03-03T00:21:41.970Z,75.39
2023-03-03T00:24:18.744Z,76.15
2023-03-03T00:26:48.995Z,74.56
2023-03-03T00:29:32.228Z,75.71
2023-03-03T00:32:16.928Z,75.59
2023-03-03T00:34:45.895Z,75.70
2023-03-03T00:37:26.699Z,75.31
2023-03-03T00:39:54.291Z,74.92
2023-03-03T00:42:24.427Z,74.98
2023-03-03T00:44:57.816Z,74.47
2023-03-03T00:47:31.261Z,73.83
2023-03-03T00:50:25.982Z,74.40
2023-03-03T00:53:01.632Z,75.20
2023-03-03T00:55:29.491Z,75.58
2023-03-03T00:57:58.929Z,75.34
2023-03-03T01:00:26.888Z,76.47
2023-03-03T01:02:54.566Z,75.69
2023-03-03T01:05:22.692Z,75.71
2023-03-03T01:07:50.436Z,76.56
2023-03-03T01:10:18.303Z,75.80
2023-03-03T01:12:46.178Z,76.36
2023-03-03T01:15:16.031Z,75.65
2023-03-03T01:17:44.318Z,75.34
2023-03-03T01:20:14.421Z,75.75
2023-03-03T01:22:42.406Z,75.67
2023-03-03T01:25:11.163Z,75.54
2023-03-03T01:27:38.826Z,75.96
2023-03-03T01:30:07.619Z,76.31
2023-03-03T01:32:36.633Z,75.52
2023-03-03T01:35:04.708Z,76.25
2023-03-03T01:37:34.700Z,75.13
2023-03-03T01:40:02.499Z,74.61
2023-03-03T01:42:30.782Z,74.67
2023-03-03T01:45:17.682Z,74.54
2023-03-03T01:47:52.442Z,75.24
2023-03-03T01:50:45.423Z,74.95
2023-03-03T01:53:17.033Z,75.27
2023-03-03T01:55:46.078Z,74.64
2023-03-03T01:58:19.547Z,75.33
2023-03-03T02:00:51.505Z,75.75
2023-03-03T02:03:22.240Z,76.33
2023-03-03T02:05:50.651Z,75.49
2023-03-03T02:08:22.783Z,76.01
2023-03-03T02:10:51.984Z,76.07
2023-03-03T02:13:19.677Z,76.18
2023-03-03T02:15:47.490Z,75.55
2023-03-03T02:18:17.804Z,75.43
2023-03-03T02:20:57.834Z,75.18
2023-03-03T02:23:30.948Z,75.55
2023-03-03T02:26:09.824Z,76.02
2023-03-03T02:28:39.451Z,76.44
2023-03-03T02:31:10.894Z,75.38
2023-03-03T02:33:38.627Z,76.67
2023-03-03T02:36:06.822Z,77.75
2023-03-03T02:38:42.228Z,77.75
2023-03-03T02:41:17.632Z,78.05
2023-03-03T02:43:52.367Z,77.88
2023-03-03T02:46:20.188Z,77.70
2023-03-03T02:48:47.902Z,78.24
2023-03-03T02:51:15.626Z,78.41
2023-03-03T02:53:43.274Z,78.95
2023-03-03T02:56:12.420Z,78.59
2023-03-03T02:58:40.064Z,78.62
2023-03-03T03:01:08.054Z,77.88
2023-03-03T03:03:35.685Z,77.62
2023-03-03T03:06:03.586Z,77.59
2023-03-03T03:08:31.374Z,77.49
2023-03-03T03:10:58.982Z,77.50
2023-03-03T03:13:28.536Z,77.34
2023-03-03T03:15:56.423Z,77.32
2023-03-03T03:18:24.148Z,77.33
2023-03-03T03:20:51.752Z,77.71
2023-03-03T03:23:21.924Z,77.66
2023-03-03T03:25:49.928Z,77.65
2023-03-03T03:28:18.768Z,78.05
2023-03-03T03:30:47.800Z,78.32
2023-03-03T03:33:15.419Z,78.97
2023-03-03T03:35:45.691Z,79.49
2023-03-03T03:38:13.662Z,79.48
2023-03-03T03:40:41.945Z,79.36
2023-03-03T03:43:09.790Z,78.99
2023-03-03T03:45:37.483Z,79.66
2023-03-03T03:48:07.050Z,79.42
2023-03-03T03:50:34.870Z,79.54
2023-03-03T03:53:02.595Z,79.45
2023-03-03T03:55:30.245Z,79.69
2023-03-03T03:57:58.525Z,79.96
2023-03-03T04:00:26.576Z,79.78
2023-03-03T04:02:54.399Z,80.24
2023-03-03T04:05:23.634Z,80.02
2023-03-03T04:07:51.603Z,79.42
2023-03-03T04:10:19.365Z,79.43
2023-03-03T04:12:47.174Z,79.43
2023-03-03T04:15:16.024Z,79.35
2023-03-03T04:17:43.999Z,79.92
2023-03-03T04:20:15.376Z,79.53
2023-03-03T04:22:44.596Z,79.66
2023-03-03T04:25:15.342Z,80.48
2023-03-03T04:27:44.276Z,79.82
2023-03-03T04:30:13.724Z,80.23
2023-03-03T04:32:41.962Z,80.71
2023-03-03T04:35:10.984Z,80.04
2023-03-03T04:37:39.464Z,80.12
2023-03-03T04:40:10.461Z,80.27
2023-03-03T04:42:38.411Z,79.90
2023-03-03T04:45:07.129Z,80.25
2023-03-03T04:47:34.941Z,80.74
2023-03-03T04:50:02.561Z,80.49
2023-03-03T04:52:30.368Z,80.80
2023-03-03T04:54:58.068Z,80.72
2023-03-03T04:57:27.136Z,80.20
2023-03-03T04:59:55.006Z,80.55
2023-03-03T05:02:22.972Z,81.30
2023-03-03T05:04:50.627Z,81.25
2023-03-03T05:07:20.172Z,81.37
2023-03-03T05:09:47.910Z,80.90
2023-03-03T05:12:16.096Z,81.30
2023-03-03T05:14:45.172Z,81.34
2023-03-03T05:17:12.842Z,81.31
2023-03-03T05:19:41.466Z,81.21
2023-03-03T05:22:13.233Z,80.80
2023-03-03T05:24:42.869Z,81.16
2023-03-03T05:27:11.884Z,81.28
2023-03-03T05:29:40.138Z,81.50
2023-03-03T05:32:09.404Z,82.29
2023-03-03T05:34:37.284Z,81.83
2023-03-03T05:37:06.887Z,82.06
2023-03-03T05:39:35.095Z,81.21
2023-03-03T05:42:03.564Z,81.87
2023-03-03T05:44:32.670Z,81.79
2023-03-03T05:47:00.447Z,80.48
2023-03-03T05:49:29.628Z,80.43
2023-03-03T05:51:57.292Z,79.98
2023-03-03T05:54:25.066Z,80.56
2023-03-03T05:56:52.866Z,81.94
2023-03-03T05:59:21.108Z,80.96
2023-03-03T06:01:48.710Z,80.37
2023-03-03T06:04:16.336Z,80.35
2023-03-03T06:06:45.408Z,81.72
2023-03-03T06:09:13.089Z,81.61
2023-03-03T06:11:40.725Z,80.73
2023-03-03T06:14:08.349Z,80.76
2023-03-03T06:16:36.130Z,80.68
2023-03-03T06:19:03.858Z,81.04
2023-03-03T06:21:31.506Z,80.98
2023-03-03T06:24:00.533Z,81.25
2023-03-03T06:26:28.253Z,80.93
2023-03-03T06:28:55.892Z,80.71
2023-03-03T06:31:23.588Z,81.54
2023-03-03T06:33:51.433Z,81.83
2023-03-03T06:36:20.814Z,81.65
2023-03-03T06:38:48.936Z,82.05
2023-03-03T06:41:18.204Z,82.50
2023-03-03T06:43:46.408Z,82.26
2023-03-03T06:46:14.222Z,82.46
2023-03-03T06:48:41.957Z,83.20
2023-03-03T06:51:23.324Z,82.28
2023-03-03T06:53:53.789Z,82.92
2023-03-03T06:56:23.174Z,81.92
2023-03-03T06:58:51.543Z,82.23
2023-03-03T07:01:19.390Z,82.69
2023-03-03T07:03:47.442Z,82.03
2023-03-03T07:06:23.882Z,82.23
2023-03-03T07:08:52.857Z,81.65
2023-03-03T07:11:24.181Z,81.59
2023-03-03T07:13:53.498Z,81.55
2023-03-03T07:16:26.417Z,81.53
2023-03-03T07:18:55.804Z,80.75
2023-03-03T07:21:26.620Z,80.78
2023-03-03T07:23:54.936Z,80.16
2023-03-03T07:26:28.907Z,79.71
2023-03-03T07:28:59.561Z,79.60
2023-03-03T07:31:35.110Z,78.96
2023-03-03T07:34:05.249Z,77.46
2023-03-03T07:36:36.838Z,78.15
2023-03-03T07:39:15.476Z,80.02
2023-03-03T07:41:44.624Z,78.24
2023-03-03T07:44:20.175Z,77.17
2023-03-03T07:46:50.506Z,78.13
2023-03-03T07:49:23.808Z,78.07
2023-03-03T07:51:55.271Z,78.35
2023-03-03T07:54:32.913Z,77.63
2023-03-03T07:57:19.914Z,77.90
2023-03-03T07:59:49.650Z,77.98
2023-03-03T08:02:36.077Z,78.30
2023-03-03T08:05:34.796Z,77.20
2023-03-03T08:08:29.320Z,73.86
2023-03-03T08:10:57.936Z,71.70
2023-03-03T08:13:31.732Z,70.78
2023-03-03T08:16:02.989Z,69.40
2023-03-03T08:18:36.135Z,69.07
2023-03-03T08:21:04.336Z,69.05
2023-03-03T08:23:31.955Z,68.83
2023-03-03T08:25:59.633Z,68.75
2023-03-03T08:28:28.977Z,68.72
2023-03-03T08:31:13.004Z,68.94
2023-03-03T08:33:44.595Z,68.14
2023-03-03T08:36:13.036Z,68.77
2023-03-03T08:38:41.215Z,69.12
2023-03-03T08:41:08.931Z,65.23
2023-03-03T08:43:38.210Z,63.88
2023-03-03T08:46:07.625Z,65.57
2023-03-03T08:48:35.296Z,64.44
2023-03-03T08:51:03.446Z,67.27
2023-03-03T08:53:33.560Z,67.11
2023-03-03T08:56:01.224Z,67.87
2023-03-03T08:58:35.064Z,66.98
2023-03-03T09:01:05.512Z,65.86
2023-03-03T09:03:33.561Z,65.75
2023-03-03T09:06:01.265Z,65.52
2023-03-03T09:08:28.946Z,66.34
2023-03-03T09:10:56.643Z,64.51
2023-03-03T09:13:24.464Z,63.29
2023-03-03T09:15:52.253Z,65.38
2023-03-03T09:18:23.536Z,65.68
2023-03-03T09:20:52.504Z,63.25
2023-03-03T09:23:31.563Z,63.65
2023-03-03T09:26:00.259Z,65.55
2023-03-03T09:28:30.187Z,65.12
2023-03-03T09:30:59.296Z,64.56
2023-03-03T09:33:31.044Z,61.10
2023-03-03T09:36:05.116Z,61.51
2023-03-03T09:38:34.877Z,61.17
2023-03-03T09:41:25.507Z,60.43
2023-03-03T09:44:05.943Z,59.16
2023-03-03T09:46:42.302Z,59.23
2023-03-03T09:49:22.238Z,59.58
2023-03-03T09:52:16.434Z,63.85
2023-03-03T09:54:55.830Z,60.52
2023-03-03T09:57:30.654Z,58.96
2023-03-03T10:00:21.323Z,59.63
2023-03-03T10:03:04.848Z,58.42
2023-03-03T10:05:46.536Z,58.83
2023-03-03T10:08:31.752Z,56.72
2023-03-03T10:11:05.341Z,60.58
2023-03-03T10:13:44.635Z,59.88
2023-03-03T10:16:33.588Z,59.18
2023-03-03T10:19:04.495Z,58.88
2023-03-03T10:21:40.796Z,55.75
2023-03-03T10:24:24.722Z,53.93
2023-03-03T10:27:13.472Z,55.85
2023-03-03T10:29:51.346Z,56.46
2023-03-03T10:32:41.273Z,53.03
2023-03-03T10:35:42.504Z,54.39
2023-03-03T10:38:38.141Z,53.97
2023-03-03T10:41:21.330Z,57.02
2023-03-03T10:44:05.232Z,55.96
2023-03-03T10:46:51.614Z,55.59
2023-03-03T10:49:31.940Z,55.61
2023-03-03T10:52:26.719Z,52.35
2023-03-03T10:55:11.278Z,52.96
2023-03-03T10:57:48.075Z,52.11
2023-03-03T11:00:22.598Z,49.82
2023-03-03T11:03:22.391Z,50.36
2023-03-03T11:05:54.851Z,49.84
2023-03-03T11:08:29.470Z,50.78
2023-03-03T11:11:11.128Z,52.56
2023-03-03T11:13:47.009Z,50.47
2023-03-03T11:16:30.786Z,48.68
2023-03-03T11:19:11.541Z,50.94
2023-03-03T11:21:48.105Z,50.34
2023-03-03T11:24:32.965Z,49.17
2023-03-03T11:27:15.471Z,48.67
2023-03-03T11:29:57.372Z,49.92
2023-03-03T11:32:33.581Z,50.40
2023-03-03T11:35:20.661Z,50.51
2023-03-03T11:37:58.172Z,49.64
2023-03-03T11:40:28.800Z,48.75
2023-03-03T11:43:06.962Z,50.79
2023-03-03T11:45:41.310Z,50.03
2023-03-03T11:48:16.872Z,50.21
2023-03-03T11:50:53.803Z,49.00
2023-03-03T11:53:32.935Z,46.95
2023-03-03T11:56:08.543Z,48.28
2023-03-03T11:58:44.852Z,47.55
2023-03-03T12:01:21.010Z,48.74
2023-03-03T12:03:55.225Z,49.24
2023-03-03T12:06:31.580Z,47.08
2023-03-03T12:09:17.272Z,49.30
2023-03-03T12:11:52.208Z,47.80
2023-03-03T12:14:37.322Z,47.88
2023-03-03T12:17:13.218Z,47.81
2023-03-03T12:19:51.740Z,48.07
2023-03-03T12:22:31.178Z,47.27
2023-03-03T12:25:13.226Z,48.92
2023-03-03T12:27:49.825Z,48.33
2023-03-03T12:30:34.681Z,47.85
2023-03-03T12:33:20.062Z,49.23
2023-03-03T12:35:56.596Z,48.68
2023-03-03T12:38:35.251Z,47.64
2023-03-03T12:41:09.868Z,45.69
2023-03-03T12:43:54.161Z,45.37
2023-03-03T12:46:30.068Z,45.56
2023-03-03T12:48:57.756Z,44.59
2023-03-03T12:51:38.216Z,44.91
2023-03-03T12:54:25.964Z,43.27
2023-03-03T12:56:56.946Z,43.53
2023-03-03T12:59:36.231Z,43.49
2023-03-03T13:02:26.514Z,44.62
2023-03-03T13:05:01.831Z,45.54
2023-03-03T13:07:38.436Z,45.99
2023-03-03T13:10:17.866Z,44.41
2023-03-03T13:12:50.007Z,43.69
2023-03-03T13:15:31.616Z,46.04
2023-03-03T13:18:21.205Z,46.81
2023-03-03T13:20:52.330Z,46.09
2023-03-03T13:23:32.855Z,44.97
2023-03-03T13:26:07.765Z,45.03
2023-03-03T13:28:41.608Z,43.95
2023-03-03T13:31:15.468Z,45.17
2023-03-03T13:33:53.632Z,42.72
2023-03-03T13:36:26.633Z,43.24
2023-03-03T13:38:58.993Z,41.31
2023-03-03T13:41:32.336Z,41.35
2023-03-03T13:44:05.038Z,41.09
2023-03-03T13:46:41.850Z,42.62
2023-03-03T13:49:31.816Z,42.97
2023-03-03T13:52:04.524Z,44.13
2023-03-03T13:54:59.378Z,43.67
2023-03-03T13:57:53.879Z,45.71
2023-03-03T14:00:31.848Z,44.26
2023-03-03T14:03:28.969Z,45.90
2023-03-03T14:06:03.642Z,45.21
2023-03-03T14:09:02.205Z,44.84
2023-03-03T14:11:37.117Z,43.36
2023-03-03T14:14:14.820Z,44.61
2023-03-03T14:16:51.950Z,45.87
2023-03-03T14:19:24.865Z,43.74
2023-03-03T14:22:06.869Z,44.58
2023-03-03T14:25:01.597Z,44.32
2023-03-03T14:27:36.308Z,46.02
2023-03-03T14:30:31.068Z,45.75
2023-03-03T14:33:07.001Z,46.12
2023-03-03T14:35:36.680Z,44.81
2023-03-03T14:38:11.297Z,43.62
2023-03-03T14:40:42.853Z,43.02
2023-03-03T14:43:24.086Z,42.34
2023-03-03T14:45:52.754Z,42.17
2023-03-03T14:48:22.700Z,43.01
2023-03-03T14:50:53.381Z,43.76
2023-03-03T14:53:33.987Z,43.84
2023-03-03T14:56:23.642Z,43.17
2023-03-03T14:58:52.150Z,42.94
2023-03-03T15:01:30.947Z,44.31
2023-03-03T15:04:03.486Z,44.87
2023-03-03T15:06:41.626Z,44.23
2023-03-03T15:09:43.293Z,44.92
2023-03-03T15:12:24.479Z,43.97
2023-03-03T15:14:53.739Z,43.22
2023-03-03T15:17:28.738Z,43.41
2023-03-03T15:20:14.697Z,44.55
2023-03-03T15:22:48.652Z,46.20
2023-03-03T15:25:34.778Z,46.91
2023-03-03T15:28:23.514Z,47.42
2023-03-03T15:30:56.399Z,47.14
2023-03-03T15:33:30.560Z,47.52
2023-03-03T15:36:05.122Z,46.06
2023-03-03T15:38:44.937Z,48.13
2023-03-03T15:41:26.538Z,48.54
2023-03-03T15:44:13.388Z,46.60
2023-03-03T15:46:54.817Z,46.61
2023-03-03T15:49:42.335Z,46.72
2023-03-03T15:52:23.438Z,47.80
2023-03-03T15:55:01.586Z,49.78
2023-03-03T15:57:39.503Z,48.88
2023-03-03T16:00:55.777Z,49.88
2023-03-03T16:03:29.596Z,50.20
2023-03-03T16:06:02.301Z,49.96
2023-03-03T16:08:37.620Z,50.71
2023-03-03T16:11:11.832Z,50.73
2023-03-03T16:13:53.000Z,50.86
2023-03-03T16:16:32.150Z,51.62
2023-03-03T16:19:12.727Z,51.44
2023-03-03T16:22:08.921Z,52.73
2023-03-03T16:24:51.433Z,52.85
2023-03-03T16:27:24.621Z,52.77
2023-03-03T16:30:05.231Z,53.19
2023-03-03T16:32:41.820Z,53.00
2023-03-03T16:35:23.295Z,52.38
2023-03-03T16:37:59.086Z,52.71
2023-03-03T16:40:30.804Z,53.28
2023-03-03T16:43:06.841Z,53.32
2023-03-03T16:45:36.452Z,54.11
2023-03-03T16:48:27.273Z,53.90
2023-03-03T16:51:12.921Z,54.03
2023-03-03T16:53:52.047Z,54.23
2023-03-03T16:56:24.121Z,54.01
2023-03-03T16:59:14.820Z,54.25
2023-03-03T17:01:50.597Z,55.05
2023-03-03T17:04:35.637Z,54.28
2023-03-03T17:07:13.719Z,54.39
2023-03-03T17:09:53.086Z,55.51
2023-03-03T17:12:38.931Z,55.63
2023-03-03T17:15:16.334Z,55.96
2023-03-03T17:17:48.084Z,54.82
2023-03-03T17:20:31.167Z,56.03
2023-03-03T17:23:23.844Z,55.90
2023-03-03T17:26:00.239Z,55.93
2023-03-03T17:28:40.119Z,56.08
2023-03-03T17:31:14.372Z,56.74
2023-03-03T17:34:06.741Z,56.81
2023-03-03T17:36:49.417Z,57.42
2023-03-03T17:39:36.012Z,58.03
2023-03-03T17:42:10.526Z,58.01
2023-03-03T17:44:47.437Z,57.71
2023-03-03T17:47:32.140Z,58.27
2023-03-03T17:50:19.512Z,58.54
2023-03-03T17:53:14.483Z,59.00
2023-03-03T17:56:04.563Z,58.35
2023-03-03T17:59:04.989Z,58.63
2023-03-03T18:01:50.402Z,60.06
2023-03-03T18:04:31.584Z,60.83
2023-03-03T18:07:23.657Z,61.11
2023-03-03T18:10:26.187Z,60.56
2023-03-03T18:13:02.885Z,60.33
2023-03-03T18:15:45.244Z,60.86
2023-03-03T18:18:32.020Z,59.81
2023-03-03T18:21:08.968Z,60.30
2023-03-03T18:23:42.644Z,60.92
2023-03-03T18:26:41.248Z,61.20
2023-03-03T18:29:20.385Z,61.29
2023-03-03T18:32:01.257Z,62.50
2023-03-03T18:34:35.695Z,62.99
2023-03-03T18:37:08.439Z,62.61
2023-03-03T18:39:43.343Z,63.14
2023-03-03T18:42:37.669Z,63.96
2023-03-03T18:45:44.869Z,63.88
2023-03-03T18:48:13.965Z,64.17
2023-03-03T18:50:43.510Z,64.83
2023-03-03T18:53:26.756Z,65.81
2023-03-03T18:55:56.460Z,65.00
2023-03-03T18:58:52.787Z,65.83
2023-03-03T19:01:43.181Z,66.26
2023-03-03T19:04:19.211Z,67.37
2023-03-03T19:07:10.011Z,66.22
2023-03-03T19:09:57.073Z,66.07
2023-03-03T19:12:47.317Z,67.95
2023-03-03T19:15:56.436Z,66.97
2023-03-03T19:18:27.349Z,67.37
2023-03-03T19:20:59.426Z,68.12
2023-03-03T19:23:48.796Z,67.75
2023-03-03T19:26:50.589Z,66.57
2023-03-03T19:29:40.233Z,67.11
2023-03-03T19:32:29.377Z,66.53
2023-03-03T19:35:09.247Z,68.04
2023-03-03T19:37:48.259Z,67.99
2023-03-03T19:40:22.984Z,67.75
2023-03-03T19:43:02.095Z,68.41
2023-03-03T19:45:49.137Z,68.63
2023-03-03T19:48:28.266Z,68.33
2023-03-03T19:51:02.865Z,69.01
2023-03-03T19:53:38.117Z,69.64
2023-03-03T19:56:20.412Z,69.52
2023-03-03T19:59:01.953Z,70.08
2023-03-03T20:01:42.229Z,70.29
2023-03-03T20:04:54.035Z,72.09
2023-03-03T20:07:31.380Z,72.07
2023-03-03T20:10:08.574Z,72.28
2023-03-03T20:12:53.817Z,72.20
2023-03-03T20:15:29.732Z,72.88
2023-03-03T20:18:36.552Z,72.06
2023-03-03T20:21:14.082Z,72.06
2023-03-03T20:23:58.101Z,71.96
2023-03-03T20:26:33.108Z,73.06
2023-03-03T20:29:28.720Z,73.49
2023-03-03T20:32:06.269Z,72.75
2023-03-03T20:34:41.984Z,73.79
2023-03-03T20:37:15.599Z,74.01
2023-03-03T20:39:55.947Z,74.00
2023-03-03T20:42:39.078Z,73.98
2023-03-03T20:45:28.388Z,74.44
2023-03-03T20:48:11.648Z,75.06
2023-03-03T20:50:50.290Z,74.54
2023-03-03T20:53:27.556Z,74.84
2023-03-03T20:56:05.588Z,74.86
2023-03-03T20:58:44.013Z,75.44
2023-03-03T21:01:15.641Z,75.79
2023-03-03T21:03:45.308Z,75.39
2023-03-03T21:06:15.605Z,75.25
2023-03-03T21:08:53.300Z,76.07
2023-03-03T21:11:23.254Z,75.87
2023-03-03T21:13:54.075Z,75.43
2023-03-03T21:16:33.130Z,75.32
2023-03-03T21:19:03.297Z,75.10
2023-03-03T21:21:33.274Z,75.59
2023-03-03T21:24:02.578Z,76.21
2023-03-03T21:26:52.097Z,76.86
2023-03-03T21:29:22.674Z,75.73
2023-03-03T21:31:51.738Z,76.34
2023-03-03T21:34:30.688Z,75.58
2023-03-03T21:37:00.290Z,75.15
2023-03-03T21:39:32.158Z,74.34
2023-03-03T21:42:03.190Z,77.00
2023-03-03T21:44:40.128Z,78.21
2023-03-03T21:47:10.161Z,79.00
2023-03-03T21:49:42.010Z,78.47
2023-03-03T21:52:10.105Z,78.29
2023-03-03T21:54:39.540Z,78.76
2023-03-03T21:57:07.512Z,78.67
2023-03-03T21:59:35.299Z,78.12
2023-03-03T22:02:02.908Z,78.22
2023-03-03T22:04:30.788Z,78.54
2023-03-03T22:06:58.437Z,78.19
2023-03-03T22:09:26.843Z,79.08
2023-03-03T22:11:55.849Z,78.53
2023-03-03T22:14:23.553Z,78.93
2023-03-03T22:16:51.211Z,78.68
2023-03-03T22:19:18.788Z,78.68
2023-03-03T22:21:47.690Z,79.15
2023-03-03T22:24:15.563Z,78.43
2023-03-03T22:26:43.264Z,78.50
2023-03-03T22:29:12.440Z,77.62
2023-03-03T22:31:40.400Z,77.41
2023-03-03T22:34:08.288Z,77.57
2023-03-03T22:36:35.948Z,77.85
2023-03-03T22:39:03.579Z,78.14
2023-03-03T22:41:31.228Z,78.80
2023-03-03T22:43:58.926Z,78.70
2023-03-03T22:46:28.076Z,79.58
2023-03-03T22:48:55.945Z,79.53
2023-03-03T22:51:23.561Z,79.97
2023-03-03T22:53:51.152Z,80.39
2023-03-03T22:56:18.767Z,80.02
2023-03-03T22:58:46.373Z,80.02
2023-03-03T23:01:14.065Z,80.89
2023-03-03T23:03:43.368Z,80.04
2023-03-03T23:06:11.004Z,80.06
2023-03-03T23:08:38.589Z,80.40
2023-03-03T23:11:06.349Z,80.91
2023-03-03T23:13:35.143Z,80.97
2023-03-03T23:16:03.023Z,81.29
2023-03-03T23:18:31.021Z,80.36
2023-03-03T23:21:00.052Z,80.44
2023-03-03T23:23:29.473Z,80.75
2023-03-03T23:25:57.156Z,81.47
2023-03-03T23:28:24.894Z,82.25
2023-03-03T23:30:52.576Z,81.71
2023-03-03T23:33:20.396Z,81.00
2023-03-03T23:35:49.791Z,81.65
2023-03-03T23:38:18.802Z,81.00
2023-03-03T23:40:47.633Z,81.67
2023-03-03T23:43:15.369Z,82.32
2023-03-03T23:45:43.034Z,82.17
2023-03-03T23:48:11.177Z,82.20
2023-03-03T23:50:39.261Z,83.07
2023-03-03T23:53:08.073Z,83.20
2023-03-03T23:55:37.560Z,83.23
2023-03-03T23:58:05.864Z,82.84
